Time;durP1;ratioP1;P1;durP2;ratioP2;P2;SDS_P1;SDS_P2;PMS_P1;PMS_P2;Temp;Humidity;BMP_temperature;BMP_pressure;BME280_temperature;BME280_humidity;BME280_pressure;Samples;Min_cycle;Max_cycle;Signal;HPM_P1;HPM_P2
2022/08/26 00:04:12;;;;;;;2.90;2.00;;;;;;;20.38;100.00;101484.09;10342625;28;20061;-77
2022/08/26 00:09:13;;;;;;;5.60;2.83;;;;;;;20.27;100.00;101484.16;10341930;28;20055;-78
2022/08/26 00:14:21;;;;;;;5.18;2.45;;;;;;;20.24;100.00;101494.63;10341039;28;20081;-77
2022/08/26 00:19:28;;;;;;;3.28;2.05;;;;;;;20.10;100.00;101554.00;10341423;28;20413;-78
2022/08/26 00:24:31;;;;;;;3.42;2.08;;;;;;;20.13;100.00;101554.00;10342534;28;20117;-78
2022/08/26 00:29:33;;;;;;;56.67;20.20;;;;;;;20.03;100.00;101562.72;10330726;28;20469;-78
2022/08/26 00:34:35;;;;;;;4.25;2.60;;;;;;;20.04;100.00;101574.94;10297296;28;20055;-78
2022/08/26 00:39:39;;;;;;;2.95;2.47;;;;;;;20.07;100.00;101606.28;10343657;28;20108;-79
2022/08/26 00:44:43;;;;;;;2.70;1.83;;;;;;;20.00;100.00;101621.16;10328321;28;20054;-78
2022/08/26 00:49:46;;;;;;;4.50;2.42;;;;;;;19.99;100.00;101626.41;10322614;28;20065;-79
2022/08/26 00:54:58;;;;;;;4.03;2.15;;;;;;;20.00;100.00;101641.19;10301996;28;20055;-78
2022/08/26 01:00:04;;;;;;;3.03;1.92;;;;;;;19.92;100.00;101649.91;10329200;28;20560;-78
2022/08/26 01:05:10;;;;;;;3.72;1.90;;;;;;;19.79;100.00;101658.63;10338328;28;20065;-78
2022/08/26 01:10:16;;;;;;;2.88;1.77;;;;;;;19.78;100.00;101683.91;10304554;28;20498;-78
2022/08/26 01:15:23;;;;;;;2.92;1.58;;;;;;;19.83;100.00;101686.53;10298737;28;20055;-78
2022/08/26 01:20:33;;;;;;;4.68;2.65;;;;;;;19.77;100.00;101694.38;10299159;28;20102;-79
2022/08/26 01:25:39;;;;;;;3.25;1.63;;;;;;;19.76;100.00;101698.72;10298785;28;20043;-78
2022/08/26 01:30:45;;;;;;;1.15;1.00;;;;;;;19.70;100.00;101701.31;10306369;28;20050;-78
2022/08/26 01:35:49;;;;;;;1.77;1.20;;;;;;;19.71;100.00;101707.41;10321014;28;20054;-77
2022/08/26 01:40:52;;;;;;;3.95;2.15;;;;;;;19.66;100.00;101715.25;10284972;28;20113;-77
2022/08/26 01:45:55;;;;;;;2.13;1.45;;;;;;;19.61;100.00;101712.66;10328610;28;20081;-77
2022/08/26 01:50:59;;;;;;;2.25;1.25;;;;;;;19.61;100.00;101728.34;10338461;28;20054;-78
2022/08/26 01:56:03;;;;;;;5.15;1.85;;;;;;;19.54;100.00;101726.59;10337919;28;20054;-78
2022/08/26 02:01:06;;;;;;;2.08;1.73;;;;;;;19.53;100.00;101724.84;10306184;28;20061;-77
2022/08/26 02:06:11;;;;;;;2.20;1.25;;;;;;;19.51;100.00;101721.34;10297104;28;20047;-78
2022/08/26 02:11:13;;;;;;;2.30;1.65;;;;;;;19.60;100.00;101710.91;10296676;28;20101;-77
2022/08/26 02:16:21;;;;;;;2.17;1.30;;;;;;;19.52;100.00;101703.91;10296506;28;20483;-77
2022/08/26 02:21:24;;;;;;;1.73;1.50;;;;;;;19.60;100.00;101695.22;10296204;28;20058;-78
2022/08/26 02:26:25;;;;;;;4.90;1.90;;;;;;;19.52;100.00;101691.72;10296567;28;20102;-80
2022/08/26 02:31:28;;;;;;;1.92;1.60;;;;;;;19.57;100.00;101679.53;10295908;28;20050;-79
2022/08/26 02:36:29;;;;;;;9.15;1.77;;;;;;;19.50;100.00;101678.66;10295733;28;20047;-78
2022/08/26 02:41:31;;;;;;;2.38;1.90;;;;;;;19.55;100.00;101675.16;10298267;28;20066;-78
2022/08/26 02:46:33;;;;;;;2.17;1.63;;;;;;;19.56;100.00;101666.47;10330660;28;20383;-78
2022/08/26 02:51:37;;;;;;;2.80;1.75;;;;;;;19.51;100.00;101661.22;10336690;28;20133;-77
2022/08/26 02:56:40;;;;;;;2.05;1.40;;;;;;;19.48;100.00;101648.16;10339350;28;20051;-79
2022/08/26 03:01:43;;;;;;;2.35;1.65;;;;;;;19.48;100.00;101638.59;10298129;28;20055;-79
2022/08/26 03:06:46;;;;;;;3.90;1.40;;;;;;;19.48;100.00;101637.69;10297644;28;20077;-78
2022/08/26 03:11:54;;;;;;;3.47;1.50;;;;;;;19.47;100.00;101621.16;10298909;28;20070;-78
2022/08/26 03:16:56;;;;;;;1.77;1.23;;;;;;;19.62;100.00;101603.72;10295112;28;20482;-78
2022/08/26 03:21:59;;;;;;;1.30;1.00;;;;;;;19.46;100.00;101603.72;10294447;28;20055;-79
2022/08/26 03:27:00;;;;;;;2.83;0.77;;;;;;;19.47;100.00;101602.00;10295042;28;20506;-79
2022/08/26 03:32:08;;;;;;;1.58;0.93;;;;;;;19.42;100.00;101601.13;10277094;28;20140;-79
2022/08/26 03:37:10;;;;;;;1.38;0.93;;;;;;;19.42;100.00;101598.50;10294461;28;20054;-78
2022/08/26 03:42:13;;;;;;;2.38;1.05;;;;;;;19.49;100.00;101606.34;10276857;28;20054;-79
2022/08/26 03:47:16;;;;;;;2.35;1.83;;;;;;;19.47;100.00;101604.63;10294726;28;20058;-78
2022/08/26 03:52:17;;;;;;;1.40;0.98;;;;;;;19.41;100.00;101601.97;10294737;28;20059;-78
2022/08/26 03:57:19;;;;;;;1.60;0.90;;;;;;;19.43;100.00;101602.84;10294316;28;20093;-77
2022/08/26 04:02:23;;;;;;;1.17;0.85;;;;;;;19.54;100.00;101608.09;10293737;28;20051;-78
2022/08/26 04:07:26;;;;;;;0.98;0.77;;;;;;;19.49;100.00;101606.34;10276461;28;20050;-78
2022/08/26 04:12:28;;;;;;;1.52;1.05;;;;;;;19.53;100.00;101604.63;10276976;28;20066;-78
2022/08/26 04:17:30;;;;;;;1.35;0.95;;;;;;;19.52;100.00;101604.59;10276207;28;20058;-78
2022/08/26 04:22:33;;;;;;;0.75;0.52;;;;;;;19.46;100.00;101606.34;10300537;28;20078;-77
2022/08/26 04:27:34;;;;;;;1.67;0.65;;;;;;;19.48;100.00;101601.09;10334534;28;20576;-77
2022/08/26 04:32:37;;;;;;;0.63;0.40;;;;;;;19.57;100.00;101590.66;10334036;28;20058;-78
2022/08/26 04:37:39;;;;;;;0.52;0.52;;;;;;;19.55;100.00;101592.41;10333017;28;20054;-78
2022/08/26 04:42:43;;;;;;;0.50;0.50;;;;;;;19.63;100.00;101580.19;10316268;28;20054;-78
2022/08/26 04:47:45;;;;;;;2.00;0.80;;;;;;;19.54;100.00;101589.78;10338156;28;20059;-79
2022/08/26 04:52:47;;;;;;;0.77;0.30;;;;;;;19.62;100.00;101598.50;10340596;28;20062;-78
2022/08/26 04:57:48;;;;;;;0.32;0.32;;;;;;;19.68;100.00;101597.63;10323634;28;20050;-78
2022/08/26 05:02:50;;;;;;;1.08;0.40;;;;;;;19.66;100.00;101598.50;10339766;28;20057;-78
2022/08/26 05:07:52;;;;;;;0.17;0.17;;;;;;;19.73;100.00;101593.25;10339562;28;20556;-77
2022/08/26 05:12:53;;;;;;;0.50;0.30;;;;;;;19.80;100.00;101592.38;10339356;28;20062;-78
2022/08/26 05:17:58;;;;;;;0.17;0.17;;;;;;;19.86;100.00;101587.16;10338924;28;20112;-79
2022/08/26 05:23:01;;;;;;;0.65;0.38;;;;;;;19.91;100.00;101577.59;10339324;28;20391;-78
2022/08/26 05:28:03;;;;;;;1.13;0.40;;;;;;;19.85;100.00;101582.81;10323230;28;20101;-78
2022/08/26 05:33:07;;;;;;;0.65;0.43;;;;;;;19.89;100.00;101573.22;10341420;28;20517;-77
2022/08/26 05:38:14;;;;;;;0.75;0.50;;;;;;;19.96;100.00;101573.22;10341276;28;20112;-78
2022/08/26 05:43:19;;;;;;;1.10;0.55;;;;;;;20.02;100.00;101577.56;10323250;28;20058;-77
2022/08/26 05:48:21;;;;;;;0.28;0.28;;;;;;;20.11;100.00;101576.66;10339518;28;20055;-77
2022/08/26 05:53:25;;;;;;;0.60;0.20;;;;;;;20.08;100.00;101581.88;10337937;28;20058;-75
2022/08/26 05:58:27;;;;;;;1.88;0.38;;;;;;;20.29;100.00;101571.34;10336844;28;20390;-77
2022/08/26 06:03:30;;;;;;;0.15;0.10;;;;;;;20.20;100.00;101576.63;10337387;28;20050;-77
2022/08/26 06:08:33;;;;;;;4.05;0.50;;;;;;;20.16;100.00;101590.59;10338485;28;20142;-78
2022/08/26 06:13:36;;;;;;;0.35;0.35;;;;;;;20.01;100.00;101586.28;10337235;28;20439;-77
2022/08/26 06:18:42;;;;;;;0.38;0.30;;;;;;;20.12;100.00;101583.63;10336873;28;20406;-78
2022/08/26 06:29:06;;;;;;;0.10;0.10;;;;;;;20.16;100.00;101584.50;10345950;28;20065;-78
2022/08/26 06:34:08;;;;;;;0.10;0.10;;;;;;;20.15;100.00;101587.97;10378321;28;20054;-78
2022/08/26 06:39:13;;;;;;;0.00;0.00;;;;;;;20.06;100.00;101584.50;10360955;28;20557;-78
2022/08/26 06:44:15;;;;;;;0.50;0.17;;;;;;;20.21;100.00;101594.06;10376484;28;20050;-79
2022/08/26 06:49:17;;;;;;;0.00;0.00;;;;;;;20.40;100.00;101586.16;10380240;28;20054;-78
2022/08/26 06:54:29;;;;;;;0.20;0.20;;;;;;;20.55;100.00;101586.06;10378510;28;20457;-79
2022/08/26 06:59:30;;;;;;;0.10;0.10;;;;;;;20.69;100.00;101574.66;10379834;28;20054;-79
2022/08/26 07:04:32;;;;;;;0.90;0.38;;;;;;;20.99;100.00;101575.38;10372136;28;20513;-78
2022/08/26 07:09:36;;;;;;;0.45;0.15;;;;;;;21.06;100.00;101575.34;10341497;28;20063;-80
2022/08/26 07:14:37;;;;;;;0.08;0.08;;;;;;;21.18;100.00;101569.16;10343740;28;20133;-79
2022/08/26 07:19:39;;;;;;;0.10;0.10;;;;;;;20.96;100.00;101563.19;10338589;28;20054;-79
2022/08/26 07:24:41;;;;;;;0.00;0.00;;;;;;;21.10;100.00;101573.56;10322112;28;20414;-79
2022/08/26 07:29:44;;;;;;;2.20;0.20;;;;;;;20.95;100.00;101565.81;10342386;28;20054;-80
2022/08/26 07:34:46;;;;;;;0.30;0.20;;;;;;;21.18;100.00;101579.63;10322037;28;20058;-78
2022/08/26 07:39:47;;;;;;;0.75;0.30;;;;;;;21.27;100.00;101583.03;10336804;28;20512;-80
2022/08/26 07:44:49;;;;;;;0.00;0.00;;;;;;;21.24;100.00;101590.06;10322198;28;20401;-79
2022/08/26 07:49:53;;;;;;;0.32;0.30;;;;;;;21.29;100.00;101591.75;10339076;28;20072;-80
2022/08/26 07:54:56;;;;;;;0.10;0.10;;;;;;;21.36;100.00;101585.59;10383007;28;20061;-80
2022/08/26 07:59:59;;;;;;;0.22;0.17;;;;;;;21.56;100.00;101586.28;10356413;28;20082;-80
2022/08/26 08:05:01;;;;;;;0.10;0.10;;;;;;;21.59;100.00;101584.56;10338329;28;20058;-79
2022/08/26 08:10:04;;;;;;;0.10;0.10;;;;;;;21.30;100.00;101583.03;10341521;28;20117;-80
2022/08/26 08:15:12;;;;;;;0.03;0.03;;;;;;;21.08;100.00;101588.44;10322973;28;20137;-79
2022/08/26 08:20:14;;;;;;;0.30;0.20;;;;;;;21.53;100.00;101594.19;10320803;28;20062;-79
2022/08/26 08:25:16;;;;;;;0.13;0.10;;;;;;;21.71;100.00;101589.66;10325572;28;20057;-80
2022/08/26 08:30:20;;;;;;;0.73;0.20;;;;;;;21.44;100.00;101586.41;10343415;28;20516;-79
2022/08/26 08:35:25;;;;;;;35.72;1.20;;;;;;;21.25;100.00;101590.91;10310175;28;20051;-80
2022/08/26 08:40:27;;;;;;;0.55;0.10;;;;;;;21.33;100.00;101590.88;10345977;28;20062;-80
2022/08/26 08:45:37;;;;;;;0.10;0.10;;;;;;;21.39;100.00;101585.56;10344706;28;20082;-81
2022/08/26 08:50:46;;;;;;;0.08;0.08;;;;;;;21.56;100.00;101583.66;10343408;28;20106;-80
2022/08/26 08:56:01;;;;;;;0.47;0.47;;;;;;;21.39;100.00;101577.72;10325203;28;20117;-82
2022/08/26 09:01:07;;;;;;;1.55;0.98;;;;;;;21.64;100.00;101580.13;10341930;28;20042;-80
2022/08/26 09:06:16;;;;;;;0.10;0.10;;;;;;;21.59;100.00;101576.69;10342854;28;20050;-80
2022/08/26 09:11:19;;;;;;;1.20;0.40;;;;;;;21.66;100.00;101586.22;10357980;28;20058;-79
2022/08/26 09:16:46;;;;;;;0.00;0.00;;;;;;;21.43;100.00;101589.03;10355281;28;20050;-79
2022/08/26 09:21:56;;;;;;;0.00;0.00;;;;;;;21.84;100.00;101586.06;10321634;28;20113;-80
2022/08/26 09:26:58;;;;;;;0.08;0.08;;;;;;;21.97;100.00;101596.41;10338340;28;20054;-79
2022/08/26 09:32:22;;;;;;;0.00;0.00;;;;;;;21.82;100.00;101579.06;10343320;28;20480;-82
2022/08/26 09:37:42;;;;;;;0.00;0.00;;;;;;;21.96;100.00;101586.81;10343848;28;20405;-78
2022/08/26 09:50:24;;;;;;;0.38;0.20;;;;;;;23.12;100.00;101565.16;10320321;28;20453;-80
2022/08/26 09:55:29;;;;;;;0.00;0.00;;;;;;;22.67;100.00;101567.59;10347494;28;20068;-81
2022/08/26 10:00:40;;;;;;;0.47;0.40;;;;;;;22.96;100.00;101568.94;10333963;28;20050;-80
2022/08/26 10:05:57;;;;;;;0.17;0.17;;;;;;;22.92;100.00;101578.63;10344631;28;20509;-80
2022/08/26 10:11:04;;;;;;;0.00;0.00;;;;;;;22.44;100.00;101581.03;10327505;28;20453;-80
2022/08/26 10:16:16;;;;;;;0.20;0.20;;;;;;;22.79;100.00;101577.03;10326283;28;20042;-80
2022/08/26 10:21:34;;;;;;;0.00;0.00;;;;;;;22.71;100.00;101573.69;10332567;28;20058;-81
2022/08/26 10:26:57;;;;;;;0.08;0.05;;;;;;;22.59;100.00;101570.31;10341952;28;20441;-80
2022/08/26 10:32:05;;;;;;;0.13;0.13;;;;;;;22.85;100.00;101562.94;10343492;28;20081;-79
2022/08/26 10:37:15;;;;;;;0.32;0.32;;;;;;;22.92;100.00;101564.59;10346847;28;20054;-78
2022/08/26 10:42:31;;;;;;;0.00;0.00;;;;;;;23.00;100.00;101554.84;10322687;28;20149;-79
2022/08/26 10:47:58;;;;;;;0.20;0.10;;;;;;;22.35;100.00;101564.47;10324077;28;20106;-79
2022/08/26 10:53:15;;;;;;;0.10;0.10;;;;;;;22.44;100.00;101560.03;10341528;28;20402;-80
2022/08/26 10:58:45;;;;;;;0.57;0.50;;;;;;;22.46;100.00;101569.59;10338132;28;20054;-81
2022/08/26 11:04:03;;;;;;;0.60;0.05;;;;;;;22.78;100.00;101567.44;10319329;28;20412;-79
2022/08/26 11:15:18;;;;;;;2.30;0.30;;;;;;;22.32;100.00;101582.00;10335873;28;20054;-80
2022/08/26 11:20:37;;;;;;;0.03;0.03;;;;;;;22.27;100.00;101579.44;10335806;28;20060;-80
2022/08/26 11:25:54;;;;;;;0.17;0.10;;;;;;;22.10;100.00;101582.28;10342228;28;20065;-79
2022/08/26 11:30:57;;;;;;;0.10;0.10;;;;;;;22.05;100.00;101570.09;10341894;28;20081;-80
2022/08/26 11:35:59;;;;;;;0.05;0.05;;;;;;;22.53;100.00;101578.28;10337058;28;20046;-79
2022/08/26 11:41:19;;;;;;;0.45;0.10;;;;;;;23.02;100.00;101574.09;10317893;28;20051;-80
2022/08/26 11:46:23;;;;;;;;;;;;;;;22.82;100.00;101569.97;10337693;28;20050;-80
2022/08/26 11:51:24;;;;;;;0.20;0.20;;;;;;;22.56;100.00;101580.00;10336360;28;19928;-79
2022/08/26 11:56:31;;;;;;;0.30;0.10;;;;;;;22.23;100.00;101571.66;10327598;28;20082;-80
2022/08/26 12:01:36;;;;;;;0.55;0.28;;;;;;;22.09;100.00;101569.19;10317533;28;20061;-79
2022/08/26 12:06:50;;;;;;;0.22;0.22;;;;;;;22.17;100.00;101575.22;10345492;28;20093;-79
2022/08/26 12:12:12;;;;;;;0.20;0.20;;;;;;;21.92;100.00;101587.72;10349721;28;20062;-79
2022/08/26 12:17:18;;;;;;;0.10;0.10;;;;;;;21.86;100.00;101579.03;10352023;28;20114;-79
2022/08/26 12:22:24;;;;;;;0.25;0.17;;;;;;;22.12;100.00;101575.25;10331468;28;20055;-79
2022/08/26 12:27:32;;;;;;;0.10;0.10;;;;;;;22.31;100.00;101572.41;10346831;28;20557;-79
2022/08/26 12:32:38;;;;;;;0.30;0.17;;;;;;;22.19;100.00;101561.19;10336182;28;20574;-81
2022/08/26 12:37:58;;;;;;;0.45;0.20;;;;;;;22.25;100.00;101564.59;10294640;28;20053;-80
2022/08/26 12:43:03;;;;;;;0.85;0.55;;;;;;;22.19;100.00;101571.69;10307623;28;20051;-79
2022/08/26 12:48:20;;;;;;;0.08;0.08;;;;;;;21.85;100.00;101573.81;10318648;28;20142;-79
2022/08/26 12:53:27;;;;;;;0.30;0.30;;;;;;;22.01;100.00;101582.38;10292660;28;20051;-79
2022/08/26 12:58:35;;;;;;;0.35;0.20;;;;;;;22.16;100.00;101582.19;10315270;28;20141;-78
2022/08/26 13:03:47;;;;;;;0.47;0.30;;;;;;;22.33;100.00;101578.50;10288650;28;20130;-79
2022/08/26 13:08:55;;;;;;;0.20;0.13;;;;;;;21.90;100.00;101579.84;10306310;28;20082;-80
2022/08/26 13:14:06;;;;;;;0.10;0.10;;;;;;;22.35;100.00;101568.84;10316704;28;20516;-78
2022/08/26 13:19:15;;;;;;;0.98;0.20;;;;;;;22.45;100.00;101554.75;10346227;28;20514;-80
2022/08/26 13:24:24;;;;;;;0.30;0.20;;;;;;;22.32;100.00;101563.63;10342769;28;20409;-79
2022/08/26 13:29:26;;;;;;;;;;;;;;;22.37;100.00;101564.47;10323717;28;20097;-80
2022/08/26 13:34:29;;;;;;;0.05;0.05;;;;;;;22.10;100.00;101556.03;10326218;28;19921;-78
2022/08/26 13:39:36;;;;;;;0.10;0.10;;;;;;;21.78;100.00;101565.13;10344094;28;20144;-80
2022/08/26 13:44:39;;;;;;;0.65;0.40;;;;;;;21.90;100.00;101571.13;10344640;28;20398;-79
2022/08/26 13:49:42;;;;;;;0.10;0.10;;;;;;;21.82;100.00;101565.94;10321804;28;20055;-79
2022/08/26 13:54:44;;;;;;;0.00;0.00;;;;;;;21.56;100.00;101565.31;10323380;28;20077;-79
2022/08/26 13:59:46;;;;;;;0.10;0.00;;;;;;;21.39;100.00;101577.72;10306279;28;20137;-81
2022/08/26 14:04:47;;;;;;;0.00;0.00;;;;;;;21.39;100.00;101588.19;10310938;28;20092;-79
2022/08/26 14:09:49;;;;;;;0.00;0.00;;;;;;;21.22;100.00;101596.19;10321555;28;20054;-79
2022/08/26 14:21:36;;;;;;;0.00;0.00;;;;;;;21.18;100.00;101597.97;10338513;28;20046;-79
2022/08/26 14:26:38;;;;;;;0.10;0.10;;;;;;;21.17;100.00;101593.59;10340647;28;20105;-79
2022/08/26 14:31:40;;;;;;;0.00;0.00;;;;;;;21.31;100.00;101584.75;10337343;28;20077;-79
2022/08/26 14:36:42;;;;;;;1.13;0.77;;;;;;;21.35;100.00;101583.84;10319955;28;20104;-79
2022/08/26 14:41:47;;;;;;;0.43;0.20;;;;;;;21.03;100.00;101585.84;10323684;28;20050;-80
2022/08/26 14:46:56;;;;;;;0.00;0.00;;;;;;;21.05;100.00;101593.66;10321644;28;20070;-80
2022/08/26 14:51:58;;;;;;;0.63;0.52;;;;;;;21.15;100.00;101584.88;10320864;28;20077;-79
2022/08/26 14:57:04;;;;;;;0.15;0.10;;;;;;;21.09;100.00;101590.16;10321342;28;20141;-80
2022/08/26 15:02:09;;;;;;;0.20;0.20;;;;;;;21.24;100.00;101590.06;10337176;28;20046;-78
2022/08/26 15:07:14;;;;;;;0.00;0.00;;;;;;;20.86;100.00;101598.16;10322600;28;20050;-80
2022/08/26 15:12:15;;;;;;;0.00;0.00;;;;;;;20.89;100.00;101600.78;10320749;28;20055;-79
2022/08/26 15:17:17;;;;;;;2.00;0.93;;;;;;;20.87;100.00;101585.06;10299302;28;20102;-79
2022/08/26 15:22:19;;;;;;;0.30;0.30;;;;;;;20.94;100.00;101585.03;10297940;28;20058;-79
2022/08/26 15:27:23;;;;;;;0.00;0.00;;;;;;;21.14;100.00;101571.81;10338972;28;20058;-78
2022/08/26 15:32:25;;;;;;;0.65;0.30;;;;;;;21.11;100.00;101556.94;10329309;28;20086;-78
2022/08/26 15:37:26;;;;;;;0.10;0.10;;;;;;;21.28;100.00;101546.34;10344960;28;20039;-80
2022/08/26 15:42:28;;;;;;;0.00;0.00;;;;;;;21.20;100.00;101541.16;10345018;28;20081;-80
2022/08/26 15:47:30;;;;;;;0.35;0.10;;;;;;;21.23;100.00;101556.88;10336746;28;20072;-79
2022/08/26 15:52:38;;;;;;;0.00;0.00;;;;;;;21.29;100.00;101552.44;10337489;28;20409;-80
2022/08/26 15:57:42;;;;;;;0.65;0.40;;;;;;;21.15;100.00;101545.56;10339398;28;20137;-79
2022/08/26 16:02:45;;;;;;;0.20;0.20;;;;;;;21.13;100.00;101538.63;10344562;28;20081;-79
2022/08/26 16:07:47;;;;;;;0.10;0.08;;;;;;;21.14;100.00;101546.44;10328148;28;20042;-80
2022/08/26 16:12:49;;;;;;;0.00;0.00;;;;;;;20.98;100.00;101540.47;10320903;28;20414;-79
2022/08/26 16:17:51;;;;;;;0.00;0.00;;;;;;;21.05;100.00;101536.03;10344680;28;20046;-81
2022/08/26 16:22:53;;;;;;;0.03;0.03;;;;;;;21.05;100.00;101541.28;10346167;28;20468;-81
2022/08/26 16:27:56;;;;;;;0.10;0.10;;;;;;;20.86;100.00;101546.66;10339160;28;20523;-81
2022/08/26 16:32:59;;;;;;;1.45;0.15;;;;;;;20.77;100.00;101550.19;10305938;28;20112;-82
2022/08/26 16:38:01;;;;;;;0.00;0.00;;;;;;;20.57;100.00;101560.78;10332198;28;20494;-82
2022/08/26 16:43:03;;;;;;;0.00;0.00;;;;;;;20.47;100.00;101569.53;10361828;28;20046;-82
2022/08/26 16:48:05;;;;;;;1.35;0.13;;;;;;;20.31;100.00;101575.72;10333011;28;20084;-81
2022/08/26 16:53:08;;;;;;;1.02;0.57;;;;;;;20.26;100.00;101586.19;10321385;28;20051;-83
2022/08/26 16:58:15;;;;;;;0.70;0.40;;;;;;;20.08;100.00;101594.97;10320913;28;20042;-80
2022/08/26 17:03:17;;;;;;;0.17;0.10;;;;;;;19.96;100.00;101588.91;10319716;28;20506;-82
2022/08/26 17:08:22;;;;;;;0.80;0.10;;;;;;;19.89;100.00;101592.41;10320073;28;20128;-82
2022/08/26 17:13:29;;;;;;;0.55;0.20;;;;;;;19.88;100.00;101595.88;10339455;28;20085;-83
2022/08/26 17:18:36;;;;;;;0.30;0.22;;;;;;;19.83;100.00;101602.84;10340030;28;20050;-82
2022/08/26 17:23:40;;;;;;;0.00;0.00;;;;;;;19.79;100.00;101611.56;10364988;28;20106;-82
2022/08/26 17:28:41;;;;;;;0.00;0.00;;;;;;;19.83;100.00;101618.53;10366930;28;20062;-81
2022/08/26 17:33:43;;;;;;;0.00;0.00;;;;;;;19.72;100.00;101615.03;10356007;28;20050;-81
2022/08/26 17:38:51;;;;;;;0.00;0.00;;;;;;;19.62;100.00;101619.41;10372574;28;20046;-81
2022/08/26 17:43:54;;;;;;;0.10;0.08;;;;;;;19.58;100.00;101613.31;10368790;28;20061;-80
2022/08/26 17:48:56;;;;;;;1.10;0.63;;;;;;;19.69;100.00;101615.06;10366805;28;20108;-81
2022/08/26 17:53:57;;;;;;;0.35;0.17;;;;;;;19.66;100.00;101614.19;10347952;28;20046;-81
2022/08/26 17:58:59;;;;;;;0.00;0.00;;;;;;;19.62;100.00;101620.28;10330456;28;20134;-80
2022/08/26 18:04:04;;;;;;;0.95;0.75;;;;;;;19.61;100.00;101625.50;10333067;28;20469;-81
2022/08/26 18:09:06;;;;;;;4.22;0.25;;;;;;;19.60;100.00;101629.00;10329838;28;20053;-81
2022/08/26 18:14:08;;;;;;;0.00;0.00;;;;;;;19.35;100.00;101626.38;10339896;28;20050;-80
2022/08/26 18:19:09;;;;;;;1.98;0.20;;;;;;;19.32;100.00;101632.44;10331177;28;20038;-82
2022/08/26 18:24:11;;;;;;;0.10;0.10;;;;;;;19.25;100.00;101630.69;10330338;28;20109;-80
2022/08/26 18:29:16;;;;;;;0.40;0.20;;;;;;;19.28;100.00;101635.94;10314535;28;20055;-80
2022/08/26 18:34:18;;;;;;;0.10;0.10;;;;;;;19.20;100.00;101642.91;10328592;28;20058;-81
2022/08/26 18:39:20;;;;;;;0.73;0.20;;;;;;;19.21;100.00;101649.88;10333255;28;20133;-80
2022/08/26 18:44:24;;;;;;;0.00;0.00;;;;;;;19.05;100.00;101651.59;10336859;28;20401;-80
2022/08/26 18:49:25;;;;;;;1.25;0.32;;;;;;;18.99;100.00;101662.88;10319544;28;20068;-80
2022/08/26 18:54:28;;;;;;;0.15;0.10;;;;;;;18.98;100.00;101658.50;10339885;28;20108;-81
2022/08/26 18:59:29;;;;;;;0.20;0.10;;;;;;;18.98;100.00;101663.75;10329566;28;20050;-81
2022/08/26 19:04:31;;;;;;;0.00;0.00;;;;;;;18.87;100.00;101661.06;10332958;28;20138;-80
2022/08/26 19:09:33;;;;;;;0.60;0.30;;;;;;;18.86;100.00;101666.28;10329923;28;20123;-82
2022/08/26 19:14:36;;;;;;;0.10;0.00;;;;;;;18.85;100.00;101677.59;10339738;28;20161;-82
2022/08/26 19:19:37;;;;;;;0.00;0.00;;;;;;;18.75;100.00;101678.41;10335029;28;20047;-82
2022/08/26 19:24:39;;;;;;;0.20;0.20;;;;;;;18.68;100.00;101686.22;10313150;28;20522;-80
2022/08/26 19:29:41;;;;;;;0.00;0.00;;;;;;;18.73;100.00;101677.56;10329989;28;20050;-81
2022/08/26 19:34:43;;;;;;;0.00;0.00;;;;;;;18.61;100.00;101684.44;10332017;28;20105;-81
2022/08/26 19:39:46;;;;;;;0.10;0.00;;;;;;;18.58;100.00;101692.25;10331181;28;20058;-82
2022/08/26 19:50:16;;;;;;;0.38;0.10;;;;;;;18.53;100.00;101699.19;10336602;28;20054;-82
2022/08/26 19:55:19;;;;;;;0.10;0.10;;;;;;;18.53;100.00;101701.78;10312337;28;20421;-80
2022/08/26 20:00:24;;;;;;;0.10;0.10;;;;;;;18.55;100.00;101700.06;10309156;28;20085;-80
2022/08/26 20:05:26;;;;;;;0.20;0.20;;;;;;;18.43;100.00;101700.00;10339226;28;20065;-82
2022/08/26 20:10:27;;;;;;;0.05;0.00;;;;;;;18.41;100.00;101692.16;10331041;28;20059;-80
2022/08/26 20:15:29;;;;;;;0.63;0.52;;;;;;;18.44;100.00;101691.28;10327711;28;20105;-80
2022/08/26 20:25:50;;;;;;;;;;;;;;;18.33;100.00;101686.00;10326116;28;20066;-79
2022/08/26 20:30:52;;;;;;;0.13;0.05;;;;;;;18.32;100.00;101692.09;10345274;28;20024;-82
2022/08/26 20:35:54;;;;;;;0.35;0.25;;;;;;;18.21;100.00;101689.41;10318836;28;20050;-79
2022/08/26 20:40:55;;;;;;;0.00;0.00;;;;;;;18.31;100.00;101696.44;10320199;28;20054;-80
2022/08/26 20:45:57;;;;;;;0.00;0.00;;;;;;;18.16;100.00;101698.94;10336518;28;20046;-80
2022/08/26 20:50:59;;;;;;;1.27;0.30;;;;;;;18.09;100.00;101698.06;10311267;28;20051;-80
2022/08/26 20:56:04;;;;;;;0.00;0.00;;;;;;;18.11;100.00;101700.66;10318136;28;20052;-81
2022/08/26 21:01:07;;;;;;;4.00;0.28;;;;;;;17.98;100.00;101707.50;10314274;28;20054;-80
2022/08/26 21:06:09;;;;;;;0.00;0.00;;;;;;;18.00;100.00;101713.63;10334103;28;20432;-80
2022/08/26 21:11:11;;;;;;;0.10;0.10;;;;;;;18.02;100.00;101709.28;10318286;28;20050;-82
2022/08/26 21:16:13;;;;;;;0.20;0.10;;;;;;;17.98;100.00;101707.50;10336734;28;20467;-81
2022/08/26 21:21:14;;;;;;;0.00;0.00;;;;;;;17.97;100.00;101711.88;10335380;28;20047;-80
2022/08/26 21:26:16;;;;;;;0.00;0.00;;;;;;;17.98;100.00;101708.41;10335749;28;20394;-80
2022/08/26 21:31:20;;;;;;;0.10;0.10;;;;;;;17.85;100.00;101696.06;10322384;28;20058;-81
2022/08/26 21:36:23;;;;;;;0.17;0.17;;;;;;;17.80;100.00;101697.78;10314798;28;20154;-80
2022/08/26 21:41:26;;;;;;;0.00;0.00;;;;;;;17.73;100.00;101695.13;10330015;28;20108;-80
2022/08/26 21:46:28;;;;;;;0.08;0.08;;;;;;;17.79;100.00;101693.41;10314573;28;20626;-80
2022/08/26 21:51:32;;;;;;;0.20;0.10;;;;;;;17.81;100.00;101704.72;10331259;28;20046;-80
2022/08/26 21:56:38;;;;;;;0.50;0.13;;;;;;;17.66;100.00;101708.94;10328547;28;20050;-80
2022/08/26 22:01:40;;;;;;;3.13;0.20;;;;;;;17.66;100.00;101708.94;10336005;28;20062;-81
2022/08/26 22:06:45;;;;;;;0.00;0.00;;;;;;;17.70;100.00;101708.09;10331970;28;20434;-80
2022/08/26 22:11:47;;;;;;;0.28;0.10;;;;;;;17.68;100.00;101702.03;10318379;28;20490;-79
2022/08/26 22:16:48;;;;;;;0.08;0.08;;;;;;;17.60;100.00;101711.50;10305045;28;20054;-80
2022/08/26 22:21:53;;;;;;;0.20;0.20;;;;;;;17.55;100.00;101718.38;10327777;28;20051;-80
2022/08/26 22:26:55;;;;;;;0.17;0.10;;;;;;;17.59;100.00;101714.97;10321419;28;20062;-80
2022/08/26 22:32:01;;;;;;;0.00;0.00;;;;;;;17.54;100.00;101709.69;10325646;28;20053;-81
2022/08/26 22:37:03;;;;;;;0.00;0.00;;;;;;;17.60;100.00;101717.56;10342902;28;20058;-79
2022/08/26 22:42:05;;;;;;;0.10;0.05;;;;;;;17.53;100.00;101720.13;10332898;28;20061;-79
2022/08/26 22:47:07;;;;;;;0.13;0.08;;;;;;;17.53;100.00;101717.50;10315510;28;20069;-80
2022/08/26 22:52:09;;;;;;;0.08;0.05;;;;;;;17.48;100.00;101712.25;10333117;28;20058;-80
2022/08/26 22:57:10;;;;;;;0.00;0.00;;;;;;;17.47;100.00;101709.59;10326974;28;20050;-80
2022/08/26 23:02:12;;;;;;;0.85;0.15;;;;;;;17.40;100.00;101714.75;10336556;28;20065;-80
2022/08/26 23:07:14;;;;;;;0.50;0.47;;;;;;;17.41;100.00;101700.88;10315190;28;20062;-79
2022/08/26 23:12:17;;;;;;;0.10;0.10;;;;;;;17.38;100.00;101703.47;10308555;28;20502;-80
2022/08/26 23:17:20;;;;;;;0.28;0.20;;;;;;;17.36;100.00;101714.72;10339199;28;20133;-80
2022/08/26 23:22:21;;;;;;;0.75;0.30;;;;;;;17.31;100.00;101704.28;10338104;28;20058;-80
2022/08/26 23:27:23;;;;;;;1.73;0.55;;;;;;;17.26;100.00;101706.81;10332999;28;20066;-78
2022/08/26 23:32:25;;;;;;;0.10;0.10;;;;;;;17.34;100.00;101704.28;10331999;28;20058;-80
2022/08/26 23:37:34;;;;;;;0.57;0.20;;;;;;;17.32;100.00;101703.38;10316436;28;20085;-80
2022/08/26 23:42:36;;;;;;;0.15;0.15;;;;;;;17.25;100.00;101693.75;10326436;28;20428;-79